sensor_id;sensor_type;location;lat;lon;timestamp;P1;durP1;ratioP1;P2;durP2;ratioP2
16922;SDS011;8578;50.938;13.556;2024-01-30T00:02:02;4.80;;;2.97;;
16922;SDS011;8578;50.938;13.556;2024-01-30T00:04:31;5.20;;;2.93;;
16922;SDS011;8578;50.938;13.556;2024-01-30T00:06:59;5.50;;;3.10;;
16922;SDS011;8578;50.938;13.556;2024-01-30T00:09:26;4.87;;;3.17;;
16922;SDS011;8578;50.938;13.556;2024-01-30T00:11:54;5.30;;;3.30;;
16922;SDS011;8578;50.938;13.556;2024-01-30T00:14:22;6.60;;;3.03;;
16922;SDS011;8578;50.938;13.556;2024-01-30T00:16:50;4.83;;;2.90;;
16922;SDS011;8578;50.938;13.556;2024-01-30T00:19:18;4.87;;;2.73;;
16922;SDS011;8578;50.938;13.556;2024-01-30T00:21:48;5.77;;;3.13;;
16922;SDS011;8578;50.938;13.556;2024-01-30T00:24:15;4.90;;;3.00;;
16922;SDS011;8578;50.938;13.556;2024-01-30T00:26:43;6.90;;;3.40;;
16922;SDS011;8578;50.938;13.556;2024-01-30T00:29:11;5.93;;;3.37;;
16922;SDS011;8578;50.938;13.556;2024-01-30T00:31:39;5.70;;;3.40;;
16922;SDS011;8578;50.938;13.556;2024-01-30T00:34:07;7.50;;;3.73;;
16922;SDS011;8578;50.938;13.556;2024-01-30T00:36:35;5.63;;;3.07;;
16922;SDS011;8578;50.938;13.556;2024-01-30T00:39:04;7.60;;;3.47;;
16922;SDS011;8578;50.938;13.556;2024-01-30T00:41:33;6.67;;;3.40;;
16922;SDS011;8578;50.938;13.556;2024-01-30T00:44:01;4.93;;;3.10;;
16922;SDS011;8578;50.938;13.556;2024-01-30T00:46:28;5.90;;;3.27;;
16922;SDS011;8578;50.938;13.556;2024-01-30T00:48:55;6.13;;;3.43;;
16922;SDS011;8578;50.938;13.556;2024-01-30T00:51:25;4.63;;;2.93;;
16922;SDS011;8578;50.938;13.556;2024-01-30T00:53:53;4.80;;;3.00;;
16922;SDS011;8578;50.938;13.556;2024-01-30T00:56:22;7.23;;;3.60;;
16922;SDS011;8578;50.938;13.556;2024-01-30T00:58:50;6.77;;;3.43;;
16922;SDS011;8578;50.938;13.556;2024-01-30T01:01:18;5.00;;;2.97;;
16922;SDS011;8578;50.938;13.556;2024-01-30T01:03:46;5.03;;;3.20;;
16922;SDS011;8578;50.938;13.556;2024-01-30T01:06:15;6.40;;;3.40;;
16922;SDS011;8578;50.938;13.556;2024-01-30T01:08:43;6.30;;;3.10;;
16922;SDS011;8578;50.938;13.556;2024-01-30T01:11:11;5.60;;;3.10;;
16922;SDS011;8578;50.938;13.556;2024-01-30T01:13:41;5.30;;;3.27;;
16922;SDS011;8578;50.938;13.556;2024-01-30T01:16:08;5.00;;;3.00;;
16922;SDS011;8578;50.938;13.556;2024-01-30T01:18:36;5.13;;;2.93;;
16922;SDS011;8578;50.938;13.556;2024-01-30T01:21:04;4.60;;;2.93;;
16922;SDS011;8578;50.938;13.556;2024-01-30T01:23:32;6.00;;;2.80;;
16922;SDS011;8578;50.938;13.556;2024-01-30T01:25:59;6.90;;;3.20;;
16922;SDS011;8578;50.938;13.556;2024-01-30T01:28:28;5.60;;;3.30;;
16922;SDS011;8578;50.938;13.556;2024-01-30T01:30:56;5.30;;;2.93;;
16922;SDS011;8578;50.938;13.556;2024-01-30T01:33:31;5.23;;;2.70;;
16922;SDS011;8578;50.938;13.556;2024-01-30T01:35:59;7.73;;;3.17;;
16922;SDS011;8578;50.938;13.556;2024-01-30T01:38:28;5.20;;;3.27;;
16922;SDS011;8578;50.938;13.556;2024-01-30T01:40:56;5.53;;;2.80;;
16922;SDS011;8578;50.938;13.556;2024-01-30T01:43:24;5.33;;;2.97;;
16922;SDS011;8578;50.938;13.556;2024-01-30T01:45:51;4.83;;;3.00;;
16922;SDS011;8578;50.938;13.556;2024-01-30T01:48:20;4.83;;;2.83;;
16922;SDS011;8578;50.938;13.556;2024-01-30T01:50:48;5.70;;;2.60;;
16922;SDS011;8578;50.938;13.556;2024-01-30T01:53:15;4.60;;;2.83;;
16922;SDS011;8578;50.938;13.556;2024-01-30T01:55:45;6.53;;;3.30;;
16922;SDS011;8578;50.938;13.556;2024-01-30T01:58:13;5.67;;;2.93;;
16922;SDS011;8578;50.938;13.556;2024-01-30T02:00:41;6.40;;;2.80;;
16922;SDS011;8578;50.938;13.556;2024-01-30T02:03:09;5.63;;;2.67;;
16922;SDS011;8578;50.938;13.556;2024-01-30T02:05:39;5.13;;;2.93;;
16922;SDS011;8578;50.938;13.556;2024-01-30T02:08:06;4.23;;;2.83;;
16922;SDS011;8578;50.938;13.556;2024-01-30T02:10:35;4.77;;;2.77;;
16922;SDS011;8578;50.938;13.556;2024-01-30T02:13:03;5.10;;;3.10;;
16922;SDS011;8578;50.938;13.556;2024-01-30T02:15:31;4.53;;;3.00;;
16922;SDS011;8578;50.938;13.556;2024-01-30T02:17:58;4.10;;;2.70;;
16922;SDS011;8578;50.938;13.556;2024-01-30T02:20:27;4.83;;;2.60;;
16922;SDS011;8578;50.938;13.556;2024-01-30T02:22:57;5.33;;;2.97;;
16922;SDS011;8578;50.938;13.556;2024-01-30T02:25:31;5.03;;;2.90;;
16922;SDS011;8578;50.938;13.556;2024-01-30T02:27:58;5.60;;;2.63;;
16922;SDS011;8578;50.938;13.556;2024-01-30T02:30:26;5.17;;;2.80;;
16922;SDS011;8578;50.938;13.556;2024-01-30T02:32:53;5.00;;;2.80;;
16922;SDS011;8578;50.938;13.556;2024-01-30T02:35:21;6.07;;;3.10;;
16922;SDS011;8578;50.938;13.556;2024-01-30T02:37:48;5.37;;;3.03;;
16922;SDS011;8578;50.938;13.556;2024-01-30T02:40:18;4.87;;;2.53;;
16922;SDS011;8578;50.938;13.556;2024-01-30T02:42:46;4.57;;;2.93;;
16922;SDS011;8578;50.938;13.556;2024-01-30T02:45:13;7.43;;;2.83;;
16922;SDS011;8578;50.938;13.556;2024-01-30T02:47:41;6.67;;;3.20;;
16922;SDS011;8578;50.938;13.556;2024-01-30T02:50:08;5.80;;;2.77;;
16922;SDS011;8578;50.938;13.556;2024-01-30T02:52:36;3.47;;;2.50;;
16922;SDS011;8578;50.938;13.556;2024-01-30T02:55:04;3.93;;;2.60;;
16922;SDS011;8578;50.938;13.556;2024-01-30T02:57:33;5.77;;;2.57;;
16922;SDS011;8578;50.938;13.556;2024-01-30T03:00:01;5.00;;;2.70;;
16922;SDS011;8578;50.938;13.556;2024-01-30T03:02:30;4.43;;;2.37;;
16922;SDS011;8578;50.938;13.556;2024-01-30T03:04:57;5.67;;;3.00;;
16922;SDS011;8578;50.938;13.556;2024-01-30T03:07:24;6.67;;;2.83;;
16922;SDS011;8578;50.938;13.556;2024-01-30T03:09:52;4.10;;;2.40;;
16922;SDS011;8578;50.938;13.556;2024-01-30T03:12:22;5.70;;;2.73;;
16922;SDS011;8578;50.938;13.556;2024-01-30T03:14:51;5.27;;;2.80;;
16922;SDS011;8578;50.938;13.556;2024-01-30T03:17:19;5.43;;;2.93;;
16922;SDS011;8578;50.938;13.556;2024-01-30T03:19:47;6.33;;;2.87;;
16922;SDS011;8578;50.938;13.556;2024-01-30T03:22:16;4.63;;;2.67;;
16922;SDS011;8578;50.938;13.556;2024-01-30T03:24:43;4.90;;;2.80;;
16922;SDS011;8578;50.938;13.556;2024-01-30T03:27:11;5.50;;;2.83;;
16922;SDS011;8578;50.938;13.556;2024-01-30T03:29:38;5.03;;;2.87;;
16922;SDS011;8578;50.938;13.556;2024-01-30T03:32:07;4.83;;;2.53;;
16922;SDS011;8578;50.938;13.556;2024-01-30T03:34:35;6.33;;;2.83;;
16922;SDS011;8578;50.938;13.556;2024-01-30T03:37:04;6.03;;;2.80;;
16922;SDS011;8578;50.938;13.556;2024-01-30T03:39:32;4.20;;;2.07;;
16922;SDS011;8578;50.938;13.556;2024-01-30T03:41:59;3.97;;;2.20;;
16922;SDS011;8578;50.938;13.556;2024-01-30T03:44:27;6.20;;;2.40;;
16922;SDS011;8578;50.938;13.556;2024-01-30T03:46:54;4.10;;;2.80;;
16922;SDS011;8578;50.938;13.556;2024-01-30T03:49:23;4.13;;;2.63;;
16922;SDS011;8578;50.938;13.556;2024-01-30T03:51:50;5.63;;;2.67;;
16922;SDS011;8578;50.938;13.556;2024-01-30T03:54:18;6.47;;;2.97;;
16922;SDS011;8578;50.938;13.556;2024-01-30T03:56:45;5.60;;;3.10;;
16922;SDS011;8578;50.938;13.556;2024-01-30T03:59:13;5.27;;;2.60;;
16922;SDS011;8578;50.938;13.556;2024-01-30T04:01:40;6.27;;;3.07;;
16922;SDS011;8578;50.938;13.556;2024-01-30T04:04:09;5.23;;;3.13;;
16922;SDS011;8578;50.938;13.556;2024-01-30T04:06:37;5.60;;;2.83;;
16922;SDS011;8578;50.938;13.556;2024-01-30T04:09:06;4.47;;;2.87;;
16922;SDS011;8578;50.938;13.556;2024-01-30T04:11:34;3.37;;;2.43;;
16922;SDS011;8578;50.938;13.556;2024-01-30T04:14:02;4.90;;;2.80;;
16922;SDS011;8578;50.938;13.556;2024-01-30T04:16:31;41.90;;;19.23;;
16922;SDS011;8578;50.938;13.556;2024-01-30T04:18:58;29.57;;;15.30;;
16922;SDS011;8578;50.938;13.556;2024-01-30T04:21:26;13.37;;;7.17;;
16922;SDS011;8578;50.938;13.556;2024-01-30T04:23:55;9.73;;;5.50;;
16922;SDS011;8578;50.938;13.556;2024-01-30T04:26:24;9.20;;;4.80;;
16922;SDS011;8578;50.938;13.556;2024-01-30T04:28:52;7.53;;;3.90;;
16922;SDS011;8578;50.938;13.556;2024-01-30T04:31:19;5.27;;;3.13;;
16922;SDS011;8578;50.938;13.556;2024-01-30T04:33:47;7.83;;;3.40;;
16922;SDS011;8578;50.938;13.556;2024-01-30T04:36:14;6.57;;;3.47;;
16922;SDS011;8578;50.938;13.556;2024-01-30T04:38:43;7.30;;;4.10;;
16922;SDS011;8578;50.938;13.556;2024-01-30T04:41:11;10.33;;;4.13;;
16922;SDS011;8578;50.938;13.556;2024-01-30T04:43:40;7.00;;;3.53;;
16922;SDS011;8578;50.938;13.556;2024-01-30T04:46:08;7.63;;;3.30;;
16922;SDS011;8578;50.938;13.556;2024-01-30T04:48:37;8.50;;;3.17;;
16922;SDS011;8578;50.938;13.556;2024-01-30T04:51:05;7.27;;;3.83;;
16922;SDS011;8578;50.938;13.556;2024-01-30T04:53:32;5.40;;;3.23;;
16922;SDS011;8578;50.938;13.556;2024-01-30T04:55:59;6.53;;;4.00;;
16922;SDS011;8578;50.938;13.556;2024-01-30T04:58:28;7.97;;;4.47;;
16922;SDS011;8578;50.938;13.556;2024-01-30T05:00:56;8.50;;;3.73;;
16922;SDS011;8578;50.938;13.556;2024-01-30T05:03:24;9.00;;;4.33;;
16922;SDS011;8578;50.938;13.556;2024-01-30T05:05:53;8.23;;;3.80;;
16922;SDS011;8578;50.938;13.556;2024-01-30T05:08:20;8.40;;;4.40;;
16922;SDS011;8578;50.938;13.556;2024-01-30T05:10:49;8.97;;;4.20;;
16922;SDS011;8578;50.938;13.556;2024-01-30T05:13:17;8.60;;;4.10;;
16922;SDS011;8578;50.938;13.556;2024-01-30T05:15:46;8.57;;;4.37;;
16922;SDS011;8578;50.938;13.556;2024-01-30T05:18:13;9.50;;;5.10;;
16922;SDS011;8578;50.938;13.556;2024-01-30T05:20:41;9.97;;;4.97;;
16922;SDS011;8578;50.938;13.556;2024-01-30T05:23:08;7.30;;;4.30;;
16922;SDS011;8578;50.938;13.556;2024-01-30T05:25:36;8.13;;;4.90;;
16922;SDS011;8578;50.938;13.556;2024-01-30T05:28:04;6.60;;;3.97;;
16922;SDS011;8578;50.938;13.556;2024-01-30T05:30:32;7.27;;;3.63;;
16922;SDS011;8578;50.938;13.556;2024-01-30T05:33:02;6.83;;;4.03;;
16922;SDS011;8578;50.938;13.556;2024-01-30T05:35:30;5.63;;;3.13;;
16922;SDS011;8578;50.938;13.556;2024-01-30T05:37:58;4.40;;;2.77;;
16922;SDS011;8578;50.938;13.556;2024-01-30T05:40:26;4.80;;;2.70;;
16922;SDS011;8578;50.938;13.556;2024-01-30T05:42:53;4.47;;;2.83;;
16922;SDS011;8578;50.938;13.556;2024-01-30T05:45:21;6.17;;;2.80;;
16922;SDS011;8578;50.938;13.556;2024-01-30T05:47:50;5.47;;;2.50;;
16922;SDS011;8578;50.938;13.556;2024-01-30T05:50:21;4.77;;;2.70;;
16922;SDS011;8578;50.938;13.556;2024-01-30T05:52:49;3.70;;;2.40;;
16922;SDS011;8578;50.938;13.556;2024-01-30T05:55:17;4.23;;;2.53;;
16922;SDS011;8578;50.938;13.556;2024-01-30T05:57:45;4.87;;;2.80;;
16922;SDS011;8578;50.938;13.556;2024-01-30T06:00:13;6.73;;;2.63;;
16922;SDS011;8578;50.938;13.556;2024-01-30T06:02:41;4.53;;;2.80;;
16922;SDS011;8578;50.938;13.556;2024-01-30T06:05:08;4.83;;;2.23;;
16922;SDS011;8578;50.938;13.556;2024-01-30T06:07:37;5.00;;;2.60;;
16922;SDS011;8578;50.938;13.556;2024-01-30T06:10:06;5.30;;;2.63;;
16922;SDS011;8578;50.938;13.556;2024-01-30T06:12:35;4.50;;;2.60;;
16922;SDS011;8578;50.938;13.556;2024-01-30T06:15:04;4.97;;;2.80;;
16922;SDS011;8578;50.938;13.556;2024-01-30T06:17:31;4.17;;;2.33;;
16922;SDS011;8578;50.938;13.556;2024-01-30T06:19:59;4.47;;;2.73;;
16922;SDS011;8578;50.938;13.556;2024-01-30T06:22:26;4.57;;;2.47;;
16922;SDS011;8578;50.938;13.556;2024-01-30T06:24:55;6.17;;;2.80;;
16922;SDS011;8578;50.938;13.556;2024-01-30T06:27:24;4.97;;;2.80;;
16922;SDS011;8578;50.938;13.556;2024-01-30T06:29:51;8.60;;;3.07;;
16922;SDS011;8578;50.938;13.556;2024-01-30T06:32:19;9.73;;;3.33;;
16922;SDS011;8578;50.938;13.556;2024-01-30T06:34:46;14.60;;;5.90;;
16922;SDS011;8578;50.938;13.556;2024-01-30T06:37:14;14.20;;;5.93;;
16922;SDS011;8578;50.938;13.556;2024-01-30T06:39:41;11.67;;;5.70;;
16922;SDS011;8578;50.938;13.556;2024-01-30T06:42:11;10.27;;;5.47;;
16922;SDS011;8578;50.938;13.556;2024-01-30T06:44:39;17.90;;;8.40;;
16922;SDS011;8578;50.938;13.556;2024-01-30T06:47:07;17.60;;;8.20;;
16922;SDS011;8578;50.938;13.556;2024-01-30T06:49:35;12.40;;;6.83;;
16922;SDS011;8578;50.938;13.556;2024-01-30T06:52:04;12.63;;;6.10;;
16922;SDS011;8578;50.938;13.556;2024-01-30T06:54:32;8.50;;;4.53;;
16922;SDS011;8578;50.938;13.556;2024-01-30T06:57:00;9.33;;;4.07;;
16922;SDS011;8578;50.938;13.556;2024-01-30T06:59:29;10.10;;;5.20;;
16922;SDS011;8578;50.938;13.556;2024-01-30T07:01:57;9.73;;;4.87;;
16922;SDS011;8578;50.938;13.556;2024-01-30T07:04:26;9.93;;;5.00;;
16922;SDS011;8578;50.938;13.556;2024-01-30T07:06:53;9.63;;;4.63;;
16922;SDS011;8578;50.938;13.556;2024-01-30T07:09:21;11.90;;;5.50;;
16922;SDS011;8578;50.938;13.556;2024-01-30T07:11:49;10.67;;;5.23;;
16922;SDS011;8578;50.938;13.556;2024-01-30T07:14:17;10.17;;;5.73;;
16922;SDS011;8578;50.938;13.556;2024-01-30T07:16:46;11.43;;;5.37;;
16922;SDS011;8578;50.938;13.556;2024-01-30T07:19:14;10.73;;;5.50;;
16922;SDS011;8578;50.938;13.556;2024-01-30T07:21:41;10.90;;;5.50;;
16922;SDS011;8578;50.938;13.556;2024-01-30T07:24:09;11.13;;;5.13;;
16922;SDS011;8578;50.938;13.556;2024-01-30T07:26:36;12.30;;;5.93;;
16922;SDS011;8578;50.938;13.556;2024-01-30T07:29:04;9.20;;;5.17;;
16922;SDS011;8578;50.938;13.556;2024-01-30T07:31:31;8.87;;;4.33;;
16922;SDS011;8578;50.938;13.556;2024-01-30T07:34:01;8.57;;;4.70;;
16922;SDS011;8578;50.938;13.556;2024-01-30T07:36:29;6.27;;;4.00;;
16922;SDS011;8578;50.938;13.556;2024-01-30T07:38:57;9.33;;;4.90;;
16922;SDS011;8578;50.938;13.556;2024-01-30T07:41:24;9.20;;;5.10;;
16922;SDS011;8578;50.938;13.556;2024-01-30T07:43:53;8.20;;;4.30;;
16922;SDS011;8578;50.938;13.556;2024-01-30T07:46:20;8.83;;;4.63;;
16922;SDS011;8578;50.938;13.556;2024-01-30T07:48:49;8.57;;;4.33;;
16922;SDS011;8578;50.938;13.556;2024-01-30T07:51:21;9.47;;;4.87;;
16922;SDS011;8578;50.938;13.556;2024-01-30T07:53:48;9.07;;;4.50;;
16922;SDS011;8578;50.938;13.556;2024-01-30T07:56:17;6.37;;;3.73;;
16922;SDS011;8578;50.938;13.556;2024-01-30T07:58:45;6.00;;;3.80;;
16922;SDS011;8578;50.938;13.556;2024-01-30T08:01:14;6.47;;;3.90;;
16922;SDS011;8578;50.938;13.556;2024-01-30T08:03:42;7.40;;;3.87;;
16922;SDS011;8578;50.938;13.556;2024-01-30T08:06:09;7.80;;;3.33;;
16922;SDS011;8578;50.938;13.556;2024-01-30T08:08:39;6.77;;;3.73;;
16922;SDS011;8578;50.938;13.556;2024-01-30T08:11:06;6.40;;;3.70;;
16922;SDS011;8578;50.938;13.556;2024-01-30T08:13:34;9.07;;;3.80;;
16922;SDS011;8578;50.938;13.556;2024-01-30T08:16:01;6.77;;;3.93;;
16922;SDS011;8578;50.938;13.556;2024-01-30T08:18:29;6.17;;;3.83;;
16922;SDS011;8578;50.938;13.556;2024-01-30T08:20:56;6.53;;;3.83;;
16922;SDS011;8578;50.938;13.556;2024-01-30T08:23:24;5.10;;;3.07;;
16922;SDS011;8578;50.938;13.556;2024-01-30T08:25:53;5.60;;;3.47;;
16922;SDS011;8578;50.938;13.556;2024-01-30T08:28:20;10.63;;;3.47;;
16922;SDS011;8578;50.938;13.556;2024-01-30T08:30:49;5.73;;;3.20;;
16922;SDS011;8578;50.938;13.556;2024-01-30T08:33:16;4.57;;;3.17;;
16922;SDS011;8578;50.938;13.556;2024-01-30T08:35:44;5.17;;;3.03;;
16922;SDS011;8578;50.938;13.556;2024-01-30T08:38:12;7.13;;;3.50;;
16922;SDS011;8578;50.938;13.556;2024-01-30T08:40:39;4.63;;;3.40;;
16922;SDS011;8578;50.938;13.556;2024-01-30T08:43:08;5.60;;;2.90;;
16922;SDS011;8578;50.938;13.556;2024-01-30T08:45:36;6.20;;;3.13;;
16922;SDS011;8578;50.938;13.556;2024-01-30T08:48:04;4.40;;;2.83;;
16922;SDS011;8578;50.938;13.556;2024-01-30T08:50:32;4.57;;;3.03;;
16922;SDS011;8578;50.938;13.556;2024-01-30T08:53:01;4.60;;;2.63;;
16922;SDS011;8578;50.938;13.556;2024-01-30T08:55:29;8.17;;;3.40;;
16922;SDS011;8578;50.938;13.556;2024-01-30T08:58:00;5.87;;;2.90;;
16922;SDS011;8578;50.938;13.556;2024-01-30T09:00:31;6.27;;;3.40;;
16922;SDS011;8578;50.938;13.556;2024-01-30T09:02:59;7.57;;;3.60;;
16922;SDS011;8578;50.938;13.556;2024-01-30T09:05:26;6.57;;;3.83;;
16922;SDS011;8578;50.938;13.556;2024-01-30T09:07:55;5.90;;;3.00;;
16922;SDS011;8578;50.938;13.556;2024-01-30T09:10:23;6.47;;;3.73;;
16922;SDS011;8578;50.938;13.556;2024-01-30T09:12:50;6.07;;;3.70;;
16922;SDS011;8578;50.938;13.556;2024-01-30T09:15:19;10.03;;;4.40;;
16922;SDS011;8578;50.938;13.556;2024-01-30T09:17:50;10.07;;;6.40;;
16922;SDS011;8578;50.938;13.556;2024-01-30T09:20:18;21.33;;;12.17;;
16922;SDS011;8578;50.938;13.556;2024-01-30T09:22:46;12.50;;;6.97;;
16922;SDS011;8578;50.938;13.556;2024-01-30T09:25:14;8.33;;;5.47;;
16922;SDS011;8578;50.938;13.556;2024-01-30T09:27:41;6.93;;;3.93;;
16922;SDS011;8578;50.938;13.556;2024-01-30T09:30:09;6.07;;;3.43;;
16922;SDS011;8578;50.938;13.556;2024-01-30T09:32:37;5.47;;;3.90;;
16922;SDS011;8578;50.938;13.556;2024-01-30T09:35:06;8.77;;;3.53;;
16922;SDS011;8578;50.938;13.556;2024-01-30T09:37:34;5.80;;;3.50;;
16922;SDS011;8578;50.938;13.556;2024-01-30T09:40:01;6.33;;;3.37;;
16922;SDS011;8578;50.938;13.556;2024-01-30T09:42:32;5.87;;;3.20;;
16922;SDS011;8578;50.938;13.556;2024-01-30T09:45:01;7.60;;;3.53;;
16922;SDS011;8578;50.938;13.556;2024-01-30T09:47:30;5.90;;;3.47;;
16922;SDS011;8578;50.938;13.556;2024-01-30T09:49:59;4.07;;;3.03;;
16922;SDS011;8578;50.938;13.556;2024-01-30T09:52:30;5.00;;;3.70;;
16922;SDS011;8578;50.938;13.556;2024-01-30T09:54:59;6.17;;;3.70;;
16922;SDS011;8578;50.938;13.556;2024-01-30T09:57:26;6.77;;;3.73;;
16922;SDS011;8578;50.938;13.556;2024-01-30T09:59:54;7.43;;;3.23;;
16922;SDS011;8578;50.938;13.556;2024-01-30T10:02:22;4.87;;;3.13;;
16922;SDS011;8578;50.938;13.556;2024-01-30T10:04:50;6.73;;;3.57;;
16922;SDS011;8578;50.938;13.556;2024-01-30T10:07:19;5.70;;;3.40;;
16922;SDS011;8578;50.938;13.556;2024-01-30T10:09:48;5.17;;;3.00;;
16922;SDS011;8578;50.938;13.556;2024-01-30T10:12:16;6.60;;;3.40;;
16922;SDS011;8578;50.938;13.556;2024-01-30T10:14:44;7.43;;;3.40;;
16922;SDS011;8578;50.938;13.556;2024-01-30T10:17:11;6.20;;;2.93;;
16922;SDS011;8578;50.938;13.556;2024-01-30T10:19:53;3.83;;;2.90;;
16922;SDS011;8578;50.938;13.556;2024-01-30T10:22:21;3.97;;;2.83;;
16922;SDS011;8578;50.938;13.556;2024-01-30T10:24:50;5.80;;;3.30;;
16922;SDS011;8578;50.938;13.556;2024-01-30T10:27:23;4.17;;;2.80;;
16922;SDS011;8578;50.938;13.556;2024-01-30T10:29:51;5.47;;;3.03;;
16922;SDS011;8578;50.938;13.556;2024-01-30T10:32:19;5.57;;;3.13;;
16922;SDS011;8578;50.938;13.556;2024-01-30T10:34:47;4.60;;;2.63;;
16922;SDS011;8578;50.938;13.556;2024-01-30T10:37:15;4.37;;;2.70;;
16922;SDS011;8578;50.938;13.556;2024-01-30T10:39:44;4.77;;;2.87;;
16922;SDS011;8578;50.938;13.556;2024-01-30T10:42:13;5.70;;;2.80;;
16922;SDS011;8578;50.938;13.556;2024-01-30T10:44:47;4.90;;;3.17;;
16922;SDS011;8578;50.938;13.556;2024-01-30T10:47:18;4.63;;;2.73;;
16922;SDS011;8578;50.938;13.556;2024-01-30T10:49:48;4.00;;;2.87;;
16922;SDS011;8578;50.938;13.556;2024-01-30T10:52:16;4.33;;;2.47;;
16922;SDS011;8578;50.938;13.556;2024-01-30T10:54:44;4.97;;;2.67;;
16922;SDS011;8578;50.938;13.556;2024-01-30T10:57:13;3.20;;;2.40;;
16922;SDS011;8578;50.938;13.556;2024-01-30T10:59:43;3.67;;;2.33;;
16922;SDS011;8578;50.938;13.556;2024-01-30T11:02:12;4.17;;;2.60;;
16922;SDS011;8578;50.938;13.556;2024-01-30T11:04:40;3.87;;;2.70;;
16922;SDS011;8578;50.938;13.556;2024-01-30T11:07:14;4.37;;;2.80;;
16922;SDS011;8578;50.938;13.556;2024-01-30T11:09:48;4.67;;;2.70;;
16922;SDS011;8578;50.938;13.556;2024-01-30T11:12:18;4.83;;;2.70;;
16922;SDS011;8578;50.938;13.556;2024-01-30T11:14:49;4.03;;;2.50;;
16922;SDS011;8578;50.938;13.556;2024-01-30T11:17:18;5.43;;;3.07;;
16922;SDS011;8578;50.938;13.556;2024-01-30T11:19:46;4.10;;;2.60;;
16922;SDS011;8578;50.938;13.556;2024-01-30T11:22:13;4.77;;;2.70;;
16922;SDS011;8578;50.938;13.556;2024-01-30T11:24:41;4.27;;;2.50;;
16922;SDS011;8578;50.938;13.556;2024-01-30T11:27:09;3.70;;;2.30;;
16922;SDS011;8578;50.938;13.556;2024-01-30T11:29:38;3.77;;;2.37;;
16922;SDS011;8578;50.938;13.556;2024-01-30T11:32:07;4.50;;;2.57;;
16922;SDS011;8578;50.938;13.556;2024-01-30T11:34:35;4.93;;;2.47;;
16922;SDS011;8578;50.938;13.556;2024-01-30T11:37:09;3.53;;;2.17;;
16922;SDS011;8578;50.938;13.556;2024-01-30T11:39:39;4.40;;;3.00;;
16922;SDS011;8578;50.938;13.556;2024-01-30T11:42:07;3.80;;;2.30;;
16922;SDS011;8578;50.938;13.556;2024-01-30T11:44:36;4.10;;;2.70;;
16922;SDS011;8578;50.938;13.556;2024-01-30T11:47:04;3.77;;;2.40;;
16922;SDS011;8578;50.938;13.556;2024-01-30T11:49:33;6.33;;;2.87;;
16922;SDS011;8578;50.938;13.556;2024-01-30T11:52:01;3.30;;;2.40;;
16922;SDS011;8578;50.938;13.556;2024-01-30T11:54:29;5.33;;;2.63;;
16922;SDS011;8578;50.938;13.556;2024-01-30T11:56:57;4.47;;;2.80;;
16922;SDS011;8578;50.938;13.556;2024-01-30T11:59:24;3.77;;;2.30;;
16922;SDS011;8578;50.938;13.556;2024-01-30T12:01:52;4.77;;;2.70;;
16922;SDS011;8578;50.938;13.556;2024-01-30T12:04:21;4.90;;;2.60;;
16922;SDS011;8578;50.938;13.556;2024-01-30T12:06:50;6.43;;;3.07;;
16922;SDS011;8578;50.938;13.556;2024-01-30T12:09:18;5.63;;;2.97;;
16922;SDS011;8578;50.938;13.556;2024-01-30T12:11:48;4.00;;;2.43;;
16922;SDS011;8578;50.938;13.556;2024-01-30T12:14:16;5.67;;;2.97;;
16922;SDS011;8578;50.938;13.556;2024-01-30T12:16:47;6.47;;;2.87;;
16922;SDS011;8578;50.938;13.556;2024-01-30T12:19:22;4.57;;;2.83;;
16922;SDS011;8578;50.938;13.556;2024-01-30T12:21:56;4.30;;;3.07;;
16922;SDS011;8578;50.938;13.556;2024-01-30T12:24:27;5.80;;;3.30;;
16922;SDS011;8578;50.938;13.556;2024-01-30T12:26:57;5.23;;;3.17;;
16922;SDS011;8578;50.938;13.556;2024-01-30T12:29:24;5.27;;;3.37;;
16922;SDS011;8578;50.938;13.556;2024-01-30T12:32:00;4.73;;;3.10;;
16922;SDS011;8578;50.938;13.556;2024-01-30T12:34:29;5.73;;;3.60;;
16922;SDS011;8578;50.938;13.556;2024-01-30T12:37:04;5.73;;;3.73;;
16922;SDS011;8578;50.938;13.556;2024-01-30T12:39:33;7.13;;;3.67;;
16922;SDS011;8578;50.938;13.556;2024-01-30T12:42:00;4.63;;;3.40;;
16922;SDS011;8578;50.938;13.556;2024-01-30T12:44:27;5.70;;;3.47;;
16922;SDS011;8578;50.938;13.556;2024-01-30T12:46:56;7.90;;;4.47;;
16922;SDS011;8578;50.938;13.556;2024-01-30T12:49:24;6.00;;;3.97;;
16922;SDS011;8578;50.938;13.556;2024-01-30T12:51:53;6.90;;;4.20;;
16922;SDS011;8578;50.938;13.556;2024-01-30T12:54:22;6.83;;;4.00;;
16922;SDS011;8578;50.938;13.556;2024-01-30T12:56:50;7.13;;;4.17;;
16922;SDS011;8578;50.938;13.556;2024-01-30T12:59:18;7.93;;;4.80;;
16922;SDS011;8578;50.938;13.556;2024-01-30T13:01:45;7.30;;;4.37;;
16922;SDS011;8578;50.938;13.556;2024-01-30T13:04:13;7.60;;;4.23;;
16922;SDS011;8578;50.938;13.556;2024-01-30T13:06:41;7.70;;;5.23;;
16922;SDS011;8578;50.938;13.556;2024-01-30T13:09:10;6.87;;;4.57;;
16922;SDS011;8578;50.938;13.556;2024-01-30T13:11:38;9.27;;;6.10;;
16922;SDS011;8578;50.938;13.556;2024-01-30T13:14:06;8.43;;;5.77;;
16922;SDS011;8578;50.938;13.556;2024-01-30T13:16:33;8.13;;;5.27;;
16922;SDS011;8578;50.938;13.556;2024-01-30T13:19:01;6.50;;;4.57;;
16922;SDS011;8578;50.938;13.556;2024-01-30T13:21:28;5.90;;;3.70;;
16922;SDS011;8578;50.938;13.556;2024-01-30T13:23:56;5.83;;;3.87;;
16922;SDS011;8578;50.938;13.556;2024-01-30T13:26:25;6.87;;;4.00;;
16922;SDS011;8578;50.938;13.556;2024-01-30T13:28:52;8.37;;;4.47;;
16922;SDS011;8578;50.938;13.556;2024-01-30T13:31:21;6.87;;;3.80;;
16922;SDS011;8578;50.938;13.556;2024-01-30T13:33:50;7.67;;;3.80;;
16922;SDS011;8578;50.938;13.556;2024-01-30T13:36:18;5.87;;;3.77;;
16922;SDS011;8578;50.938;13.556;2024-01-30T13:38:46;5.90;;;4.10;;
16922;SDS011;8578;50.938;13.556;2024-01-30T13:41:14;6.43;;;4.13;;
16922;SDS011;8578;50.938;13.556;2024-01-30T13:43:45;6.90;;;3.97;;
16922;SDS011;8578;50.938;13.556;2024-01-30T13:46:14;7.20;;;4.23;;
16922;SDS011;8578;50.938;13.556;2024-01-30T13:48:41;7.00;;;3.80;;
16922;SDS011;8578;50.938;13.556;2024-01-30T13:51:09;7.67;;;4.40;;
16922;SDS011;8578;50.938;13.556;2024-01-30T13:53:39;5.90;;;4.23;;
16922;SDS011;8578;50.938;13.556;2024-01-30T13:56:07;6.80;;;3.63;;
16922;SDS011;8578;50.938;13.556;2024-01-30T13:58:34;5.80;;;3.53;;
16922;SDS011;8578;50.938;13.556;2024-01-30T14:01:04;4.63;;;3.13;;
16922;SDS011;8578;50.938;13.556;2024-01-30T14:03:31;6.10;;;3.73;;
16922;SDS011;8578;50.938;13.556;2024-01-30T14:05:59;5.57;;;3.70;;
16922;SDS011;8578;50.938;13.556;2024-01-30T14:08:27;6.40;;;3.67;;
16922;SDS011;8578;50.938;13.556;2024-01-30T14:10:54;6.27;;;3.80;;
16922;SDS011;8578;50.938;13.556;2024-01-30T14:13:22;6.93;;;3.60;;
16922;SDS011;8578;50.938;13.556;2024-01-30T14:15:51;6.63;;;3.80;;
16922;SDS011;8578;50.938;13.556;2024-01-30T14:18:20;7.63;;;3.83;;
16922;SDS011;8578;50.938;13.556;2024-01-30T14:20:48;6.70;;;3.87;;
16922;SDS011;8578;50.938;13.556;2024-01-30T14:23:17;4.40;;;3.23;;
16922;SDS011;8578;50.938;13.556;2024-01-30T14:25:44;6.47;;;3.70;;
16922;SDS011;8578;50.938;13.556;2024-01-30T14:28:12;5.17;;;3.43;;
16922;SDS011;8578;50.938;13.556;2024-01-30T14:30:40;6.60;;;3.67;;
16922;SDS011;8578;50.938;13.556;2024-01-30T14:33:07;5.93;;;3.47;;
16922;SDS011;8578;50.938;13.556;2024-01-30T14:35:36;5.37;;;3.67;;
16922;SDS011;8578;50.938;13.556;2024-01-30T14:38:04;6.30;;;3.63;;
16922;SDS011;8578;50.938;13.556;2024-01-30T14:40:34;6.10;;;3.53;;
16922;SDS011;8578;50.938;13.556;2024-01-30T14:43:01;9.53;;;4.43;;
16922;SDS011;8578;50.938;13.556;2024-01-30T14:45:30;6.83;;;4.00;;
16922;SDS011;8578;50.938;13.556;2024-01-30T14:47:59;5.87;;;3.73;;
16922;SDS011;8578;50.938;13.556;2024-01-30T14:50:28;7.57;;;3.90;;
16922;SDS011;8578;50.938;13.556;2024-01-30T14:52:57;7.97;;;4.07;;